sensor_id;sensor_type;location;lat;lon;timestamp;pressure;altitude;pressure_sealevel;temperature;humidity
20027;BME280;10174;42.688;23.344;2023-08-06T00:01:26;94182.66;;;18.23;100.00
20027;BME280;10174;42.688;23.344;2023-08-06T00:03:51;94171.66;;;18.32;100.00
20027;BME280;10174;42.688;23.344;2023-08-06T00:06:17;94175.38;;;18.27;100.00
20027;BME280;10174;42.688;23.344;2023-08-06T00:08:42;94218.88;;;18.52;100.00
20027;BME280;10174;42.688;23.344;2023-08-06T00:11:07;94202.56;;;18.52;100.00
20027;BME280;10174;42.688;23.344;2023-08-06T00:13:33;94223.44;;;18.48;100.00
20027;BME280;10174;42.688;23.344;2023-08-06T00:16:09;94219.56;;;18.49;100.00
20027;BME280;10174;42.688;23.344;2023-08-06T00:18:35;94198.63;;;18.37;100.00
20027;BME280;10174;42.688;23.344;2023-08-06T00:21:00;94201.22;;;18.46;100.00
20027;BME280;10174;42.688;23.344;2023-08-06T00:23:26;94195.56;;;18.39;100.00
20027;BME280;10174;42.688;23.344;2023-08-06T00:25:51;94193.28;;;18.28;100.00
20027;BME280;10174;42.688;23.344;2023-08-06T00:28:16;94182.41;;;18.28;100.00
20027;BME280;10174;42.688;23.344;2023-08-06T00:30:42;94204.59;;;18.67;100.00
20027;BME280;10174;42.688;23.344;2023-08-06T00:33:07;94183.00;;;18.59;100.00
20027;BME280;10174;42.688;23.344;2023-08-06T00:35:32;94169.72;;;18.57;100.00
20027;BME280;10174;42.688;23.344;2023-08-06T00:37:58;94174.69;;;18.55;100.00
20027;BME280;10174;42.688;23.344;2023-08-06T00:40:23;94179.78;;;18.57;100.00
20027;BME280;10174;42.688;23.344;2023-08-06T00:42:48;94184.00;;;18.54;100.00
20027;BME280;10174;42.688;23.344;2023-08-06T00:45:14;94177.22;;;18.60;100.00
20027;BME280;10174;42.688;23.344;2023-08-06T00:47:40;94180.13;;;18.55;100.00
20027;BME280;10174;42.688;23.344;2023-08-06T00:50:07;94174.25;;;18.65;100.00
20027;BME280;10174;42.688;23.344;2023-08-06T00:52:33;94174.16;;;18.62;100.00
20027;BME280;10174;42.688;23.344;2023-08-06T00:54:59;94122.50;;;18.37;100.00
20027;BME280;10174;42.688;23.344;2023-08-06T00:57:24;94164.50;;;18.64;100.00
20027;BME280;10174;42.688;23.344;2023-08-06T00:59:51;94167.22;;;18.64;100.00
20027;BME280;10174;42.688;23.344;2023-08-06T01:02:17;94151.81;;;18.68;100.00
20027;BME280;10174;42.688;23.344;2023-08-06T01:04:42;94131.19;;;18.55;100.00
20027;BME280;10174;42.688;23.344;2023-08-06T01:10:37;94124.38;;;18.61;100.00
20027;BME280;10174;42.688;23.344;2023-08-06T01:13:08;94128.78;;;18.66;100.00
20027;BME280;10174;42.688;23.344;2023-08-06T01:15:41;94130.16;;;18.72;100.00
20027;BME280;10174;42.688;23.344;2023-08-06T01:18:09;94137.53;;;18.72;100.00
20027;BME280;10174;42.688;23.344;2023-08-06T01:20:35;94144.31;;;18.78;100.00
20027;BME280;10174;42.688;23.344;2023-08-06T01:23:00;94131.97;;;18.80;100.00
20027;BME280;10174;42.688;23.344;2023-08-06T01:28:52;94117.22;;;18.81;100.00
20027;BME280;10174;42.688;23.344;2023-08-06T01:31:28;94119.38;;;18.76;100.00
20027;BME280;10174;42.688;23.344;2023-08-06T01:33:56;94098.75;;;18.75;100.00
20027;BME280;10174;42.688;23.344;2023-08-06T01:36:22;94097.97;;;18.74;100.00
20027;BME280;10174;42.688;23.344;2023-08-06T01:38:48;94115.88;;;18.75;100.00
20027;BME280;10174;42.688;23.344;2023-08-06T01:41:13;94112.69;;;18.85;100.00
20027;BME280;10174;42.688;23.344;2023-08-06T01:43:39;94111.09;;;18.97;100.00
20027;BME280;10174;42.688;23.344;2023-08-06T01:46:04;94102.06;;;18.68;100.00
20027;BME280;10174;42.688;23.344;2023-08-06T01:48:29;94098.22;;;18.69;100.00
20027;BME280;10174;42.688;23.344;2023-08-06T01:50:55;94115.19;;;18.66;100.00
20027;BME280;10174;42.688;23.344;2023-08-06T01:53:20;94114.00;;;18.51;100.00
20027;BME280;10174;42.688;23.344;2023-08-06T01:55:49;94098.81;;;18.50;100.00
20027;BME280;10174;42.688;23.344;2023-08-06T01:58:14;94004.44;;;17.85;100.00
20027;BME280;10174;42.688;23.344;2023-08-06T02:00:40;94077.19;;;18.41;100.00
20027;BME280;10174;42.688;23.344;2023-08-06T02:03:05;94107.63;;;18.59;100.00
20027;BME280;10174;42.688;23.344;2023-08-06T02:05:31;94081.38;;;18.51;100.00
20027;BME280;10174;42.688;23.344;2023-08-06T02:07:56;94091.97;;;18.68;100.00
20027;BME280;10174;42.688;23.344;2023-08-06T02:10:22;94096.50;;;18.64;100.00
20027;BME280;10174;42.688;23.344;2023-08-06T02:12:47;94091.19;;;18.68;100.00
20027;BME280;10174;42.688;23.344;2023-08-06T02:15:13;94087.66;;;18.80;100.00
20027;BME280;10174;42.688;23.344;2023-08-06T02:17:38;94077.63;;;18.56;100.00
20027;BME280;10174;42.688;23.344;2023-08-06T02:20:04;94099.69;;;18.66;100.00
20027;BME280;10174;42.688;23.344;2023-08-06T02:22:30;94106.59;;;18.64;100.00
20027;BME280;10174;42.688;23.344;2023-08-06T02:24:55;94121.22;;;18.59;100.00
20027;BME280;10174;42.688;23.344;2023-08-06T02:27:20;94122.91;;;18.64;100.00
20027;BME280;10174;42.688;23.344;2023-08-06T02:29:46;94114.91;;;18.30;100.00
20027;BME280;10174;42.688;23.344;2023-08-06T02:32:12;94118.09;;;18.32;100.00
20027;BME280;10174;42.688;23.344;2023-08-06T02:34:37;94070.66;;;18.18;100.00
20027;BME280;10174;42.688;23.344;2023-08-06T02:37:02;94112.31;;;18.34;100.00
20027;BME280;10174;42.688;23.344;2023-08-06T02:39:28;94131.31;;;17.97;100.00
20027;BME280;10174;42.688;23.344;2023-08-06T02:41:53;94142.72;;;17.78;100.00
20027;BME280;10174;42.688;23.344;2023-08-06T02:44:19;94156.53;;;17.85;100.00
20027;BME280;10174;42.688;23.344;2023-08-06T02:46:44;94119.25;;;17.61;100.00
20027;BME280;10174;42.688;23.344;2023-08-06T02:49:10;94143.16;;;17.80;100.00
20027;BME280;10174;42.688;23.344;2023-08-06T02:51:35;94116.47;;;17.82;100.00
20027;BME280;10174;42.688;23.344;2023-08-06T02:54:01;94130.31;;;18.02;100.00
20027;BME280;10174;42.688;23.344;2023-08-06T02:56:26;94085.38;;;18.04;100.00
20027;BME280;10174;42.688;23.344;2023-08-06T02:58:52;94116.03;;;18.17;100.00
20027;BME280;10174;42.688;23.344;2023-08-06T03:01:17;94104.03;;;18.18;100.00
20027;BME280;10174;42.688;23.344;2023-08-06T03:03:43;94077.00;;;17.97;100.00
20027;BME280;10174;42.688;23.344;2023-08-06T03:06:08;94063.97;;;17.90;100.00
20027;BME280;10174;42.688;23.344;2023-08-06T03:08:33;94107.88;;;18.17;100.00
20027;BME280;10174;42.688;23.344;2023-08-06T03:10:59;94084.13;;;18.14;100.00
20027;BME280;10174;42.688;23.344;2023-08-06T03:13:24;94045.97;;;18.10;100.00
20027;BME280;10174;42.688;23.344;2023-08-06T03:15:58;94037.47;;;18.12;100.00
20027;BME280;10174;42.688;23.344;2023-08-06T03:18:23;94069.19;;;18.08;100.00
20027;BME280;10174;42.688;23.344;2023-08-06T03:20:51;94083.44;;;18.17;100.00
20027;BME280;10174;42.688;23.344;2023-08-06T03:23:16;94057.28;;;18.25;100.00
20027;BME280;10174;42.688;23.344;2023-08-06T03:25:42;94036.00;;;18.14;100.00
20027;BME280;10174;42.688;23.344;2023-08-06T03:28:07;94068.97;;;18.01;100.00
20027;BME280;10174;42.688;23.344;2023-08-06T03:30:33;94089.44;;;18.10;100.00
20027;BME280;10174;42.688;23.344;2023-08-06T03:32:58;94101.47;;;18.22;100.00
20027;BME280;10174;42.688;23.344;2023-08-06T03:35:23;94138.25;;;18.44;100.00
20027;BME280;10174;42.688;23.344;2023-08-06T03:37:49;94142.56;;;18.45;100.00
20027;BME280;10174;42.688;23.344;2023-08-06T03:40:15;94130.78;;;18.41;100.00
20027;BME280;10174;42.688;23.344;2023-08-06T03:42:40;94119.53;;;18.55;100.00
20027;BME280;10174;42.688;23.344;2023-08-06T03:45:06;94110.34;;;18.59;100.00
20027;BME280;10174;42.688;23.344;2023-08-06T03:47:32;94124.38;;;18.61;100.00
20027;BME280;10174;42.688;23.344;2023-08-06T03:49:57;94115.09;;;18.62;100.00
20027;BME280;10174;42.688;23.344;2023-08-06T03:52:23;94099.38;;;18.56;100.00
20027;BME280;10174;42.688;23.344;2023-08-06T03:54:48;94092.44;;;18.58;100.00
20027;BME280;10174;42.688;23.344;2023-08-06T03:57:13;94120.22;;;18.51;100.00
20027;BME280;10174;42.688;23.344;2023-08-06T03:59:39;94122.34;;;18.58;100.00
20027;BME280;10174;42.688;23.344;2023-08-06T04:02:04;94125.31;;;18.53;100.00
20027;BME280;10174;42.688;23.344;2023-08-06T04:04:30;94124.38;;;18.61;100.00
20027;BME280;10174;42.688;23.344;2023-08-06T04:06:55;94116.25;;;18.49;100.00
20027;BME280;10174;42.688;23.344;2023-08-06T04:09:21;94058.63;;;18.19;100.00
20027;BME280;10174;42.688;23.344;2023-08-06T04:11:46;94131.84;;;18.64;100.00
20027;BME280;10174;42.688;23.344;2023-08-06T04:14:11;94157.03;;;18.86;100.00
20027;BME280;10174;42.688;23.344;2023-08-06T04:16:37;94042.00;;;18.20;100.00
20027;BME280;10174;42.688;23.344;2023-08-06T04:19:02;94146.81;;;18.95;100.00
20027;BME280;10174;42.688;23.344;2023-08-06T04:21:28;94130.69;;;18.90;100.00
20027;BME280;10174;42.688;23.344;2023-08-06T04:23:53;94134.28;;;19.07;100.00
20027;BME280;10174;42.688;23.344;2023-08-06T04:26:18;94091.84;;;18.90;100.00
20027;BME280;10174;42.688;23.344;2023-08-06T04:28:44;94114.81;;;19.04;100.00
20027;BME280;10174;42.688;23.344;2023-08-06T04:31:09;94127.25;;;19.05;100.00
20027;BME280;10174;42.688;23.344;2023-08-06T04:33:35;94101.41;;;18.99;100.00
20027;BME280;10174;42.688;23.344;2023-08-06T04:36:00;94107.75;;;19.03;100.00
20027;BME280;10174;42.688;23.344;2023-08-06T04:38:26;94099.16;;;19.01;100.00
20027;BME280;10174;42.688;23.344;2023-08-06T04:40:52;94042.22;;;18.68;100.00
20027;BME280;10174;42.688;23.344;2023-08-06T04:43:18;94055.69;;;18.77;100.00
20027;BME280;10174;42.688;23.344;2023-08-06T04:45:47;94074.41;;;19.07;100.00
20027;BME280;10174;42.688;23.344;2023-08-06T04:48:13;94076.94;;;18.99;100.00
20027;BME280;10174;42.688;23.344;2023-08-06T04:50:38;94001.78;;;18.66;100.00
20027;BME280;10174;42.688;23.344;2023-08-06T04:53:07;94050.34;;;19.09;100.00
20027;BME280;10174;42.688;23.344;2023-08-06T04:55:33;94047.75;;;19.12;100.00
20027;BME280;10174;42.688;23.344;2023-08-06T04:57:58;93957.13;;;18.67;100.00
20027;BME280;10174;42.688;23.344;2023-08-06T05:00:23;94052.50;;;19.31;100.00
20027;BME280;10174;42.688;23.344;2023-08-06T05:02:49;94056.63;;;19.25;100.00
20027;BME280;10174;42.688;23.344;2023-08-06T05:05:14;94043.03;;;19.25;100.00
20027;BME280;10174;42.688;23.344;2023-08-06T05:07:40;93951.25;;;18.65;100.00
20027;BME280;10174;42.688;23.344;2023-08-06T05:10:05;94009.78;;;18.88;100.00
20027;BME280;10174;42.688;23.344;2023-08-06T05:12:31;94062.91;;;19.42;100.00
20027;BME280;10174;42.688;23.344;2023-08-06T05:14:56;94074.69;;;19.46;100.00
20027;BME280;10174;42.688;23.344;2023-08-06T05:17:21;94073.72;;;19.38;100.00
20027;BME280;10174;42.688;23.344;2023-08-06T05:19:48;94051.31;;;19.45;100.00
20027;BME280;10174;42.688;23.344;2023-08-06T05:22:13;94063.97;;;19.53;100.00
20027;BME280;10174;42.688;23.344;2023-08-06T05:24:39;94070.72;;;19.27;100.00
20027;BME280;10174;42.688;23.344;2023-08-06T05:27:05;94089.63;;;19.52;100.00
20027;BME280;10174;42.688;23.344;2023-08-06T05:29:30;94072.06;;;19.65;100.00
20027;BME280;10174;42.688;23.344;2023-08-06T05:31:55;94051.19;;;19.25;100.00
20027;BME280;10174;42.688;23.344;2023-08-06T05:34:21;94055.97;;;19.44;100.00
20027;BME280;10174;42.688;23.344;2023-08-06T05:36:46;94076.72;;;19.65;100.00
20027;BME280;10174;42.688;23.344;2023-08-06T05:39:11;94064.81;;;19.85;100.00
20027;BME280;10174;42.688;23.344;2023-08-06T05:41:37;94061.03;;;19.90;100.00
20027;BME280;10174;42.688;23.344;2023-08-06T05:44:02;94058.56;;;19.85;100.00
20027;BME280;10174;42.688;23.344;2023-08-06T05:46:28;94029.16;;;19.62;100.00
20027;BME280;10174;42.688;23.344;2023-08-06T05:48:53;94013.53;;;19.91;100.00
20027;BME280;10174;42.688;23.344;2023-08-06T05:51:19;94038.47;;;20.25;100.00
20027;BME280;10174;42.688;23.344;2023-08-06T05:53:44;94055.44;;;20.54;100.00
20027;BME280;10174;42.688;23.344;2023-08-06T05:56:12;93996.94;;;20.32;100.00
20027;BME280;10174;42.688;23.344;2023-08-06T05:58:37;94056.56;;;20.69;99.95
20027;BME280;10174;42.688;23.344;2023-08-06T06:01:03;94057.09;;;20.23;100.00
20027;BME280;10174;42.688;23.344;2023-08-06T06:03:28;93972.06;;;19.50;100.00
20027;BME280;10174;42.688;23.344;2023-08-06T06:05:53;94035.31;;;19.59;100.00
20027;BME280;10174;42.688;23.344;2023-08-06T06:08:19;94083.34;;;19.80;100.00
20027;BME280;10174;42.688;23.344;2023-08-06T06:10:44;94093.28;;;19.88;100.00
20027;BME280;10174;42.688;23.344;2023-08-06T06:13:09;94084.38;;;19.91;99.52
20027;BME280;10174;42.688;23.344;2023-08-06T06:15:35;94066.31;;;19.83;98.13
20027;BME280;10174;42.688;23.344;2023-08-06T06:18:00;93967.16;;;19.23;96.52
20027;BME280;10174;42.688;23.344;2023-08-06T06:20:25;94087.56;;;20.25;96.68
20027;BME280;10174;42.688;23.344;2023-08-06T06:22:51;94097.28;;;20.42;93.85
20027;BME280;10174;42.688;23.344;2023-08-06T06:25:16;94104.88;;;20.33;93.13
20027;BME280;10174;42.688;23.344;2023-08-06T06:27:41;94121.81;;;20.26;96.24
20027;BME280;10174;42.688;23.344;2023-08-06T06:30:07;94002.13;;;19.69;95.25
20027;BME280;10174;42.688;23.344;2023-08-06T06:32:33;94026.75;;;19.89;95.46
20027;BME280;10174;42.688;23.344;2023-08-06T06:34:59;94104.53;;;20.54;95.03
20027;BME280;10174;42.688;23.344;2023-08-06T06:37:25;94109.22;;;21.67;87.16
20027;BME280;10174;42.688;23.344;2023-08-06T06:39:50;94144.22;;;22.27;83.89
20027;BME280;10174;42.688;23.344;2023-08-06T06:42:15;94134.84;;;22.51;81.16
20027;BME280;10174;42.688;23.344;2023-08-06T06:44:41;94130.41;;;22.43;80.15
20027;BME280;10174;42.688;23.344;2023-08-06T06:47:07;94136.94;;;21.88;81.62
20027;BME280;10174;42.688;23.344;2023-08-06T06:49:32;94159.03;;;21.80;83.23
20027;BME280;10174;42.688;23.344;2023-08-06T06:51:57;94068.16;;;20.81;83.28
20027;BME280;10174;42.688;23.344;2023-08-06T06:54:23;94159.53;;;21.27;84.03
20027;BME280;10174;42.688;23.344;2023-08-06T06:56:48;94051.13;;;20.33;85.73
20027;BME280;10174;42.688;23.344;2023-08-06T06:59:13;94155.63;;;20.89;85.75
20027;BME280;10174;42.688;23.344;2023-08-06T07:01:39;94158.66;;;21.03;84.62
20027;BME280;10174;42.688;23.344;2023-08-06T07:04:04;94172.59;;;21.17;84.09
20027;BME280;10174;42.688;23.344;2023-08-06T07:06:30;94171.25;;;21.08;84.72
20027;BME280;10174;42.688;23.344;2023-08-06T07:08:56;94152.75;;;21.01;84.84
20027;BME280;10174;42.688;23.344;2023-08-06T07:11:21;94144.31;;;21.26;83.53
20027;BME280;10174;42.688;23.344;2023-08-06T07:13:47;94149.03;;;21.68;80.77
20027;BME280;10174;42.688;23.344;2023-08-06T07:16:12;94150.28;;;21.94;79.33
20027;BME280;10174;42.688;23.344;2023-08-06T07:18:38;94186.19;;;22.15;77.84
20027;BME280;10174;42.688;23.344;2023-08-06T07:21:03;94178.47;;;21.75;79.23
20027;BME280;10174;42.688;23.344;2023-08-06T07:23:29;94193.75;;;21.40;82.31
20027;BME280;10174;42.688;23.344;2023-08-06T07:25:54;94190.53;;;21.54;81.21
20027;BME280;10174;42.688;23.344;2023-08-06T07:28:19;94162.13;;;21.59;77.52
20027;BME280;10174;42.688;23.344;2023-08-06T07:30:45;94176.25;;;21.61;76.62
20027;BME280;10174;42.688;23.344;2023-08-06T07:33:11;94194.75;;;21.91;74.74
20027;BME280;10174;42.688;23.344;2023-08-06T07:35:37;94088.41;;;20.80;76.84
20027;BME280;10174;42.688;23.344;2023-08-06T07:38:03;94191.03;;;21.79;75.25
20027;BME280;10174;42.688;23.344;2023-08-06T07:40:29;94143.63;;;22.14;71.89
20027;BME280;10174;42.688;23.344;2023-08-06T07:42:54;94187.53;;;22.71;69.74
20027;BME280;10174;42.688;23.344;2023-08-06T07:45:20;94179.72;;;22.23;71.93
20027;BME280;10174;42.688;23.344;2023-08-06T07:47:45;94173.44;;;22.69;69.98
20027;BME280;10174;42.688;23.344;2023-08-06T07:50:11;94150.66;;;22.15;70.50
20027;BME280;10174;42.688;23.344;2023-08-06T07:52:37;94094.66;;;22.05;70.46
20027;BME280;10174;42.688;23.344;2023-08-06T07:55:02;94160.00;;;22.61;69.95
20027;BME280;10174;42.688;23.344;2023-08-06T07:57:33;94159.88;;;22.53;70.86
20027;BME280;10174;42.688;23.344;2023-08-06T08:00:00;94160.75;;;22.57;70.39
20027;BME280;10174;42.688;23.344;2023-08-06T08:02:25;94175.63;;;22.87;72.09
20027;BME280;10174;42.688;23.344;2023-08-06T08:04:51;94149.47;;;22.89;72.32
20027;BME280;10174;42.688;23.344;2023-08-06T08:07:16;94165.78;;;23.39;70.00
20027;BME280;10174;42.688;23.344;2023-08-06T08:09:41;94145.78;;;23.05;70.81
20027;BME280;10174;42.688;23.344;2023-08-06T08:12:07;94140.75;;;22.80;70.58
20027;BME280;10174;42.688;23.344;2023-08-06T08:14:32;94171.59;;;22.77;72.71
20027;BME280;10174;42.688;23.344;2023-08-06T08:17:02;94158.53;;;23.20;69.28
20027;BME280;10174;42.688;23.344;2023-08-06T08:19:29;94166.59;;;23.40;68.34
20027;BME280;10174;42.688;23.344;2023-08-06T08:21:54;94169.69;;;22.81;70.02
20027;BME280;10174;42.688;23.344;2023-08-06T08:24:20;94171.63;;;22.81;69.95
20027;BME280;10174;42.688;23.344;2023-08-06T08:26:49;94153.88;;;23.24;69.34
20027;BME280;10174;42.688;23.344;2023-08-06T08:29:14;94147.56;;;22.93;68.85
20027;BME280;10174;42.688;23.344;2023-08-06T08:31:40;94146.91;;;23.30;68.00
20027;BME280;10174;42.688;23.344;2023-08-06T08:34:05;94176.47;;;24.19;67.05
20027;BME280;10174;42.688;23.344;2023-08-06T08:36:31;94159.00;;;24.39;63.64
20027;BME280;10174;42.688;23.344;2023-08-06T08:38:56;94157.47;;;25.74;59.06
20027;BME280;10174;42.688;23.344;2023-08-06T08:41:22;94143.84;;;26.35;56.33
20027;BME280;10174;42.688;23.344;2023-08-06T08:43:50;94159.19;;;26.97;54.24
20027;BME280;10174;42.688;23.344;2023-08-06T08:46:18;94167.81;;;26.99;53.89
20027;BME280;10174;42.688;23.344;2023-08-06T08:48:44;94154.78;;;27.40;53.20
20027;BME280;10174;42.688;23.344;2023-08-06T08:51:11;94137.00;;;28.78;49.53
20027;BME280;10174;42.688;23.344;2023-08-06T08:53:38;94137.53;;;29.04;48.69
20027;BME280;10174;42.688;23.344;2023-08-06T08:56:05;94139.25;;;30.25;45.46
20027;BME280;10174;42.688;23.344;2023-08-06T08:58:31;94056.34;;;28.90;46.10
20027;BME280;10174;42.688;23.344;2023-08-06T09:00:57;94136.72;;;29.76;45.99
20027;BME280;10174;42.688;23.344;2023-08-06T09:03:23;93999.66;;;27.21;50.41
20027;BME280;10174;42.688;23.344;2023-08-06T09:05:51;94140.97;;;29.15;47.40
20027;BME280;10174;42.688;23.344;2023-08-06T09:08:21;94076.06;;;29.61;44.96
20027;BME280;10174;42.688;23.344;2023-08-06T09:10:50;94143.19;;;28.44;49.26
20027;BME280;10174;42.688;23.344;2023-08-06T09:13:17;94128.75;;;28.71;48.04
20027;BME280;10174;42.688;23.344;2023-08-06T09:15:43;94139.59;;;30.54;45.16
20027;BME280;10174;42.688;23.344;2023-08-06T09:18:10;94132.81;;;30.82;43.38
20027;BME280;10174;42.688;23.344;2023-08-06T09:20:39;94120.06;;;29.14;47.23
20027;BME280;10174;42.688;23.344;2023-08-06T09:23:09;94124.94;;;29.72;46.42
20027;BME280;10174;42.688;23.344;2023-08-06T09:25:38;94077.63;;;28.03;47.33
20027;BME280;10174;42.688;23.344;2023-08-06T09:28:05;94108.72;;;29.43;46.48
20027;BME280;10174;42.688;23.344;2023-08-06T09:30:38;94118.41;;;30.67;42.94
20027;BME280;10174;42.688;23.344;2023-08-06T09:33:08;94133.44;;;29.88;45.79
20027;BME280;10174;42.688;23.344;2023-08-06T09:35:35;94084.25;;;29.38;43.28
20027;BME280;10174;42.688;23.344;2023-08-06T09:38:10;94117.53;;;31.38;41.64
20027;BME280;10174;42.688;23.344;2023-08-06T09:40:37;94099.34;;;31.17;42.33
20027;BME280;10174;42.688;23.344;2023-08-06T09:43:02;94110.06;;;31.35;39.91
20027;BME280;10174;42.688;23.344;2023-08-06T09:45:33;94034.28;;;27.26;46.79
20027;BME280;10174;42.688;23.344;2023-08-06T09:48:00;94107.94;;;28.63;45.67
20027;BME280;10174;42.688;23.344;2023-08-06T09:50:30;94093.84;;;28.46;45.01
20027;BME280;10174;42.688;23.344;2023-08-06T09:52:59;94103.31;;;26.97;48.99
20027;BME280;10174;42.688;23.344;2023-08-06T09:55:25;94099.44;;;26.40;51.18
20027;BME280;10174;42.688;23.344;2023-08-06T09:57:52;94113.88;;;25.83;52.39
20027;BME280;10174;42.688;23.344;2023-08-06T10:00:18;94031.94;;;24.97;50.78
20027;BME280;10174;42.688;23.344;2023-08-06T10:02:45;94114.25;;;25.67;50.83
20027;BME280;10174;42.688;23.344;2023-08-06T10:05:11;94128.81;;;25.78;51.41
20027;BME280;10174;42.688;23.344;2023-08-06T10:07:36;94105.63;;;25.72;51.61
20027;BME280;10174;42.688;23.344;2023-08-06T10:10:05;94114.66;;;25.69;51.84
20027;BME280;10174;42.688;23.344;2023-08-06T10:12:37;94101.50;;;25.23;52.27
20027;BME280;10174;42.688;23.344;2023-08-06T10:15:06;94057.25;;;24.58;52.12
20027;BME280;10174;42.688;23.344;2023-08-06T10:17:33;94108.44;;;24.95;52.11
20027;BME280;10174;42.688;23.344;2023-08-06T10:19:59;94045.41;;;24.50;52.95
20027;BME280;10174;42.688;23.344;2023-08-06T10:22:25;94126.59;;;25.11;53.42
20027;BME280;10174;42.688;23.344;2023-08-06T10:24:57;94058.53;;;26.03;49.28
20027;BME280;10174;42.688;23.344;2023-08-06T10:27:34;94117.69;;;28.22;44.48
20027;BME280;10174;42.688;23.344;2023-08-06T10:30:22;94119.72;;;27.26;47.08
20027;BME280;10174;42.688;23.344;2023-08-06T10:32:56;94070.25;;;25.60;50.89
20027;BME280;10174;42.688;23.344;2023-08-06T10:35:38;94057.66;;;25.45;50.99
20027;BME280;10174;42.688;23.344;2023-08-06T10:38:10;94133.16;;;25.87;52.04
20027;BME280;10174;42.688;23.344;2023-08-06T10:40:39;94138.72;;;26.16;51.22
20027;BME280;10174;42.688;23.344;2023-08-06T10:43:05;94126.06;;;25.78;52.17
20027;BME280;10174;42.688;23.344;2023-08-06T10:45:36;94141.78;;;25.82;52.64
20027;BME280;10174;42.688;23.344;2023-08-06T10:48:02;94160.31;;;25.15;54.30
20027;BME280;10174;42.688;23.344;2023-08-06T10:50:28;94168.13;;;25.02;54.49
20027;BME280;10174;42.688;23.344;2023-08-06T10:52:54;94154.81;;;25.07;52.92
20027;BME280;10174;42.688;23.344;2023-08-06T10:55:27;94144.56;;;24.97;53.20
20027;BME280;10174;42.688;23.344;2023-08-06T10:57:53;94167.03;;;25.21;53.32
20027;BME280;10174;42.688;23.344;2023-08-06T11:00:21;94177.69;;;25.26;53.69
20027;BME280;10174;42.688;23.344;2023-08-06T11:02:48;94161.88;;;25.08;53.63
20027;BME280;10174;42.688;23.344;2023-08-06T11:05:14;94101.41;;;24.42;54.81
20027;BME280;10174;42.688;23.344;2023-08-06T11:07:39;94171.75;;;24.58;55.61
20027;BME280;10174;42.688;23.344;2023-08-06T11:10:07;94154.59;;;24.71;56.05
20027;BME280;10174;42.688;23.344;2023-08-06T11:12:33;94163.03;;;25.04;54.06
20027;BME280;10174;42.688;23.344;2023-08-06T11:14:59;94177.56;;;25.04;53.87
20027;BME280;10174;42.688;23.344;2023-08-06T11:17:25;94160.06;;;25.34;53.03
20027;BME280;10174;42.688;23.344;2023-08-06T11:19:52;94170.47;;;25.00;54.97
20027;BME280;10174;42.688;23.344;2023-08-06T11:22:21;94177.19;;;25.10;54.70
20027;BME280;10174;42.688;23.344;2023-08-06T11:24:47;94196.72;;;24.94;56.51
20027;BME280;10174;42.688;23.344;2023-08-06T11:27:13;94189.47;;;24.26;63.14
20027;BME280;10174;42.688;23.344;2023-08-06T11:29:40;94183.03;;;23.40;66.33
20027;BME280;10174;42.688;23.344;2023-08-06T11:32:07;94157.16;;;23.37;70.58
20027;BME280;10174;42.688;23.344;2023-08-06T11:34:33;94127.00;;;23.07;69.72
20027;BME280;10174;42.688;23.344;2023-08-06T11:36:58;94164.28;;;23.45;73.66
20027;BME280;10174;42.688;23.344;2023-08-06T11:39:24;94197.38;;;24.35;69.80
20027;BME280;10174;42.688;23.344;2023-08-06T11:41:50;94190.69;;;23.91;74.73
20027;BME280;10174;42.688;23.344;2023-08-06T11:44:19;94096.13;;;23.37;73.81
20027;BME280;10174;42.688;23.344;2023-08-06T11:46:55;94152.28;;;24.32;71.86
20027;BME280;10174;42.688;23.344;2023-08-06T11:49:36;94174.88;;;24.60;66.01
20027;BME280;10174;42.688;23.344;2023-08-06T11:54:36;94062.63;;;23.92;65.22
20027;BME280;10174;42.688;23.344;2023-08-06T11:57:03;94113.84;;;24.29;60.02
20027;BME280;10174;42.688;23.344;2023-08-06T11:59:30;94168.13;;;25.05;56.39
20027;BME280;10174;42.688;23.344;2023-08-06T12:01:55;94169.00;;;25.17;55.26
20027;BME280;10174;42.688;23.344;2023-08-06T12:04:21;94155.59;;;25.04;54.29
20027;BME280;10174;42.688;23.344;2023-08-06T12:06:46;94156.53;;;25.34;56.57
20027;BME280;10174;42.688;23.344;2023-08-06T12:09:11;94160.56;;;25.58;55.72
20027;BME280;10174;42.688;23.344;2023-08-06T12:11:37;94124.41;;;25.49;55.63
20027;BME280;10174;42.688;23.344;2023-08-06T12:14:02;94161.38;;;25.66;53.50
20027;BME280;10174;42.688;23.344;2023-08-06T12:16:28;94064.22;;;25.25;54.17
20027;BME280;10174;42.688;23.344;2023-08-06T12:18:53;94156.38;;;26.00;51.16
20027;BME280;10174;42.688;23.344;2023-08-06T12:21:18;94139.81;;;25.82;49.44
20027;BME280;10174;42.688;23.344;2023-08-06T12:23:44;94157.09;;;25.75;49.94
20027;BME280;10174;42.688;23.344;2023-08-06T12:26:09;94102.88;;;25.72;49.96
20027;BME280;10174;42.688;23.344;2023-08-06T12:28:35;94143.81;;;26.17;49.73
20027;BME280;10174;42.688;23.344;2023-08-06T12:31:00;94146.41;;;25.52;51.72
20027;BME280;10174;42.688;23.344;2023-08-06T12:33:26;94148.03;;;25.71;50.36
20027;BME280;10174;42.688;23.344;2023-08-06T12:35:51;94144.09;;;25.62;51.34
20027;BME280;10174;42.688;23.344;2023-08-06T12:38:20;94143.66;;;25.56;50.42
20027;BME280;10174;42.688;23.344;2023-08-06T12:40:45;94127.38;;;25.15;50.83
20027;BME280;10174;42.688;23.344;2023-08-06T12:43:10;94152.72;;;25.56;51.52
20027;BME280;10174;42.688;23.344;2023-08-06T12:45:36;94099.94;;;25.22;52.25
20027;BME280;10174;42.688;23.344;2023-08-06T12:48:02;94148.00;;;25.60;50.72
20027;BME280;10174;42.688;23.344;2023-08-06T12:50:28;94142.50;;;25.60;50.48